Terminal Aerodrome Forecast
Issued by NWS Austin/San Antonio, TX

Home | Current Version | Previous Version | Text Only | Print | Product List | Glossary On
Versions: 1 2 3 4 5 6 7 8 9 10 11 12 13 14 15 16 17 18
000
FTUS44 KEWX 281700
TAFAUS
TAF
KAUS 281733Z 2818/2924 19014KT P6SM FEW020
     FM281830 18012G18KT P6SM FEW030
     FM290000 17008KT P6SM SKC
     FM290800 18007KT P6SM BKN015
     FM291500 19010KT P6SM BKN025
     FM291900 19015G25KT P6SM BKN050=

USA.gov is the U.S. government's official web portal to all federal, state and local government web resources and services.